Sandakan, Malaysia
Current Conditions -  °F | °C
As of 5:00 AM on Sunday 21 Dec 2014 (Local Time) from WBKS Reporting Station
Light Rain Light Rain  
Wind Chill: 77°   Ceiling: 26000
Heat Index: 78°   Visibility: 4mi
Dew Point: 77°   Wind: 2mph
Humidity: 100%   Direction: 230°SW
Pressure: 29.77"   Gusts: NA
Location:  5.85°N, 118.11°E
Report Text: WBKS 202100Z 23002KT 7000 -RA FEW010 SCT040 BKN260 25/25 Q1008
Loading
Personal Weather Stations






























Interactive Weather Map New forecast layout! Learn more

10-Day Weather Forecast

Advertisements
Track Severe Weather on mobile